sensor_id;sensor_type;location;lat;lon;timestamp;pressure;altitude;pressure_sealevel;temperature;humidity
3590;BME280;1809;48.470;9.226;2023-04-04T00:00:01;-16200.44;;;1.13;100.00
3590;BME280;1809;48.470;9.226;2023-04-04T00:02:26;-16202.41;;;1.20;100.00
3590;BME280;1809;48.470;9.226;2023-04-04T00:04:52;-16204.78;;;1.29;100.00
3590;BME280;1809;48.470;9.226;2023-04-04T00:07:18;-16204.22;;;1.27;100.00
3590;BME280;1809;48.470;9.226;2023-04-04T00:09:43;-16203.38;;;1.24;100.00
3590;BME280;1809;48.470;9.226;2023-04-04T00:12:09;-16202.41;;;1.20;100.00
3590;BME280;1809;48.470;9.226;2023-04-04T00:14:35;-16203.38;;;1.24;100.00
3590;BME280;1809;48.470;9.226;2023-04-04T00:17:01;-16203.09;;;1.23;100.00
3590;BME280;1809;48.470;9.226;2023-04-04T00:19:26;-16203.66;;;1.25;100.00
3590;BME280;1809;48.470;9.226;2023-04-04T00:21:52;-16203.66;;;1.25;100.00
3590;BME280;1809;48.470;9.226;2023-04-04T00:24:17;-16204.78;;;1.29;100.00
3590;BME280;1809;48.470;9.226;2023-04-04T00:26:43;-16203.94;;;1.26;100.00
3590;BME280;1809;48.470;9.226;2023-04-04T00:29:09;-16204.22;;;1.27;100.00
3590;BME280;1809;48.470;9.226;2023-04-04T00:31:35;-16204.50;;;1.28;100.00
3590;BME280;1809;48.470;9.226;2023-04-04T00:34:00;-16202.69;;;1.21;100.00
3590;BME280;1809;48.470;9.226;2023-04-04T00:36:26;-16201.69;;;1.18;100.00
3590;BME280;1809;48.470;9.226;2023-04-04T00:38:52;-16201.13;;;1.16;100.00
3590;BME280;1809;48.470;9.226;2023-04-04T00:41:18;-16199.72;;;1.11;100.00
3590;BME280;1809;48.470;9.226;2023-04-04T00:43:43;-16200.44;;;1.13;100.00
3590;BME280;1809;48.470;9.226;2023-04-04T00:46:09;-16198.75;;;1.07;100.00
3590;BME280;1809;48.470;9.226;2023-04-04T00:48:40;-16200.72;;;1.14;100.00
3590;BME280;1809;48.470;9.226;2023-04-04T00:51:08;-16198.44;;;1.06;100.00
3590;BME280;1809;48.470;9.226;2023-04-04T00:53:34;-16197.75;;;1.03;100.00
3590;BME280;1809;48.470;9.226;2023-04-04T00:56:00;-16198.19;;;1.05;100.00
3590;BME280;1809;48.470;9.226;2023-04-04T00:58:32;-16195.50;;;0.95;100.00
3590;BME280;1809;48.470;9.226;2023-04-04T01:00:59;-16194.66;;;0.92;100.00
3590;BME280;1809;48.470;9.226;2023-04-04T01:03:28;-16196.06;;;0.97;100.00
3590;BME280;1809;48.470;9.226;2023-04-04T01:05:54;-16194.94;;;0.93;100.00
3590;BME280;1809;48.470;9.226;2023-04-04T01:08:23;-16194.09;;;0.90;100.00
3590;BME280;1809;48.470;9.226;2023-04-04T01:10:49;-16192.41;;;0.84;100.00
3590;BME280;1809;48.470;9.226;2023-04-04T01:13:15;-16194.09;;;0.90;100.00
3590;BME280;1809;48.470;9.226;2023-04-04T01:15:41;-16190.44;;;0.77;100.00
3590;BME280;1809;48.470;9.226;2023-04-04T01:18:08;-16188.72;;;0.71;100.00
3590;BME280;1809;48.470;9.226;2023-04-04T01:20:48;-16186.47;;;0.63;100.00
3590;BME280;1809;48.470;9.226;2023-04-04T01:23:20;-16189.84;;;0.75;100.00
3590;BME280;1809;48.470;9.226;2023-04-04T01:25:47;-16186.63;;;0.64;100.00
3590;BME280;1809;48.470;9.226;2023-04-04T01:28:13;-16182.53;;;0.49;100.00
3590;BME280;1809;48.470;9.226;2023-04-04T01:30:39;-16184.50;;;0.56;100.00
3590;BME280;1809;48.470;9.226;2023-04-04T01:33:19;-16184.50;;;0.56;100.00
3590;BME280;1809;48.470;9.226;2023-04-04T01:38:47;-16183.94;;;0.54;100.00
3590;BME280;1809;48.470;9.226;2023-04-04T01:41:18;-16180.56;;;0.42;100.00
3590;BME280;1809;48.470;9.226;2023-04-04T01:43:44;-16182.25;;;0.48;100.00
3590;BME280;1809;48.470;9.226;2023-04-04T01:46:15;-16186.19;;;0.62;100.00
3590;BME280;1809;48.470;9.226;2023-04-04T01:48:41;-16188.44;;;0.70;100.00
3590;BME280;1809;48.470;9.226;2023-04-04T01:51:06;-16186.75;;;0.64;100.00
3590;BME280;1809;48.470;9.226;2023-04-04T01:53:32;-16185.91;;;0.61;100.00
3590;BME280;1809;48.470;9.226;2023-04-04T01:55:58;-16187.47;;;0.67;100.00
3590;BME280;1809;48.470;9.226;2023-04-04T01:58:23;-16186.47;;;0.63;100.00
3590;BME280;1809;48.470;9.226;2023-04-04T02:00:49;-16185.34;;;0.59;100.00
3590;BME280;1809;48.470;9.226;2023-04-04T02:03:14;-16185.06;;;0.58;100.00
3590;BME280;1809;48.470;9.226;2023-04-04T02:05:39;-16183.66;;;0.53;100.00
3590;BME280;1809;48.470;9.226;2023-04-04T02:08:05;-16184.78;;;0.57;100.00
3590;BME280;1809;48.470;9.226;2023-04-04T02:10:30;-16186.34;;;0.63;100.00
3590;BME280;1809;48.470;9.226;2023-04-04T02:12:56;-16185.91;;;0.61;100.00
3590;BME280;1809;48.470;9.226;2023-04-04T02:15:22;-16185.06;;;0.58;100.00
3590;BME280;1809;48.470;9.226;2023-04-04T02:17:48;-16181.97;;;0.47;100.00
3590;BME280;1809;48.470;9.226;2023-04-04T02:20:14;-16183.09;;;0.51;100.00
3590;BME280;1809;48.470;9.226;2023-04-04T02:22:39;-16183.38;;;0.52;100.00
3590;BME280;1809;48.470;9.226;2023-04-04T02:25:05;-16181.97;;;0.47;100.00
3590;BME280;1809;48.470;9.226;2023-04-04T02:27:31;-16179.16;;;0.37;100.00
3590;BME280;1809;48.470;9.226;2023-04-04T02:29:56;-16179.56;;;0.38;100.00
3590;BME280;1809;48.470;9.226;2023-04-04T02:32:22;-16178.16;;;0.33;100.00
3590;BME280;1809;48.470;9.226;2023-04-04T02:34:47;-16175.47;;;0.24;100.00
3590;BME280;1809;48.470;9.226;2023-04-04T02:37:13;-16169.00;;;0.00;100.00
3590;BME280;1809;48.470;9.226;2023-04-04T02:39:38;-16173.50;;;0.17;100.00
3590;BME280;1809;48.470;9.226;2023-04-04T02:42:03;-16175.78;;;0.25;100.00
3590;BME280;1809;48.470;9.226;2023-04-04T02:44:29;-16178.59;;;0.35;100.00
3590;BME280;1809;48.470;9.226;2023-04-04T02:46:54;-16174.91;;;0.22;100.00
3590;BME280;1809;48.470;9.226;2023-04-04T02:49:20;-16171.41;;;0.09;100.00
3590;BME280;1809;48.470;9.226;2023-04-04T02:51:45;-16167.88;;;-0.04;100.00
3590;BME280;1809;48.470;9.226;2023-04-04T02:54:10;-16172.53;;;0.13;100.00
3590;BME280;1809;48.470;9.226;2023-04-04T02:56:36;-16171.25;;;0.09;100.00
3590;BME280;1809;48.470;9.226;2023-04-04T02:59:02;-16173.78;;;0.18;100.00
3590;BME280;1809;48.470;9.226;2023-04-04T03:01:28;-16172.66;;;0.14;100.00
3590;BME280;1809;48.470;9.226;2023-04-04T03:03:54;-16173.22;;;0.16;100.00
3590;BME280;1809;48.470;9.226;2023-04-04T03:06:19;-16173.50;;;0.17;100.00
3590;BME280;1809;48.470;9.226;2023-04-04T03:08:45;-16172.09;;;0.12;100.00
3590;BME280;1809;48.470;9.226;2023-04-04T03:11:10;-16169.28;;;0.02;100.00
3590;BME280;1809;48.470;9.226;2023-04-04T03:13:35;-16170.41;;;0.06;100.00
3590;BME280;1809;48.470;9.226;2023-04-04T03:16:03;-16167.31;;;-0.06;100.00
3590;BME280;1809;48.470;9.226;2023-04-04T03:18:30;-16165.06;;;-0.14;100.00
3590;BME280;1809;48.470;9.226;2023-04-04T03:20:57;-16163.63;;;-0.19;100.00
3590;BME280;1809;48.470;9.226;2023-04-04T03:23:22;-16165.47;;;-0.12;100.00
3590;BME280;1809;48.470;9.226;2023-04-04T03:25:48;-16166.03;;;-0.10;100.00
3590;BME280;1809;48.470;9.226;2023-04-04T03:28:13;-16168.16;;;-0.03;100.00
3590;BME280;1809;48.470;9.226;2023-04-04T03:30:38;-16162.94;;;-0.21;100.00
3590;BME280;1809;48.470;9.226;2023-04-04T03:33:05;-16168.88;;;0.00;100.00
3590;BME280;1809;48.470;9.226;2023-04-04T03:35:40;-16166.75;;;-0.08;100.00
3590;BME280;1809;48.470;9.226;2023-04-04T03:38:06;-16168.56;;;-0.01;100.00
3590;BME280;1809;48.470;9.226;2023-04-04T03:40:32;-16167.31;;;-0.06;100.00
3590;BME280;1809;48.470;9.226;2023-04-04T03:42:59;-16168.88;;;0.00;100.00
3590;BME280;1809;48.470;9.226;2023-04-04T03:45:27;-16163.06;;;-0.21;100.00
3590;BME280;1809;48.470;9.226;2023-04-04T03:47:55;-16163.06;;;-0.21;100.00
3590;BME280;1809;48.470;9.226;2023-04-04T03:50:41;-16162.78;;;-0.22;100.00
3590;BME280;1809;48.470;9.226;2023-04-04T03:53:11;-16162.09;;;-0.24;100.00
3590;BME280;1809;48.470;9.226;2023-04-04T03:55:40;-16166.03;;;-0.10;100.00
3590;BME280;1809;48.470;9.226;2023-04-04T03:58:11;-16166.59;;;-0.08;100.00
3590;BME280;1809;48.470;9.226;2023-04-04T04:00:37;-16163.78;;;-0.18;100.00
3590;BME280;1809;48.470;9.226;2023-04-04T04:03:02;-16164.22;;;-0.17;100.00
3590;BME280;1809;48.470;9.226;2023-04-04T04:05:28;-16161.09;;;-0.28;100.00
3590;BME280;1809;48.470;9.226;2023-04-04T04:07:54;-16163.63;;;-0.19;100.00
3590;BME280;1809;48.470;9.226;2023-04-04T04:10:20;-16163.94;;;-0.18;100.00
3590;BME280;1809;48.470;9.226;2023-04-04T04:12:46;-16163.50;;;-0.19;100.00
3590;BME280;1809;48.470;9.226;2023-04-04T04:15:12;-16162.09;;;-0.24;100.00
3590;BME280;1809;48.470;9.226;2023-04-04T04:17:38;-16159.41;;;-0.34;100.00
3590;BME280;1809;48.470;9.226;2023-04-04T04:20:05;-16161.38;;;-0.27;100.00
3590;BME280;1809;48.470;9.226;2023-04-04T04:22:31;-16161.66;;;-0.26;100.00
3590;BME280;1809;48.470;9.226;2023-04-04T04:24:57;-16158.28;;;-0.38;100.00
3590;BME280;1809;48.470;9.226;2023-04-04T04:27:22;-16159.13;;;-0.35;100.00
3590;BME280;1809;48.470;9.226;2023-04-04T04:29:48;-16160.53;;;-0.30;100.00
3590;BME280;1809;48.470;9.226;2023-04-04T04:32:17;-16159.41;;;-0.34;100.00
3590;BME280;1809;48.470;9.226;2023-04-04T04:34:43;-16155.31;;;-0.48;100.00
3590;BME280;1809;48.470;9.226;2023-04-04T04:37:09;-16154.47;;;-0.51;100.00
3590;BME280;1809;48.470;9.226;2023-04-04T04:39:35;-16154.63;;;-0.51;100.00
3590;BME280;1809;48.470;9.226;2023-04-04T04:42:01;-16152.66;;;-0.58;100.00
3590;BME280;1809;48.470;9.226;2023-04-04T04:44:27;-16156.72;;;-0.43;100.00
3590;BME280;1809;48.470;9.226;2023-04-04T04:46:56;-16155.03;;;-0.49;100.00
3590;BME280;1809;48.470;9.226;2023-04-04T04:49:27;-16154.19;;;-0.52;100.00
3590;BME280;1809;48.470;9.226;2023-04-04T04:51:53;-16152.09;;;-0.60;100.00
3590;BME280;1809;48.470;9.226;2023-04-04T04:54:28;-16151.81;;;-0.61;100.00
3590;BME280;1809;48.470;9.226;2023-04-04T04:57:05;-16151.09;;;-0.64;100.00
3590;BME280;1809;48.470;9.226;2023-04-04T04:59:33;-16151.25;;;-0.63;100.00
3590;BME280;1809;48.470;9.226;2023-04-04T05:01:59;-16152.66;;;-0.58;100.00
3590;BME280;1809;48.470;9.226;2023-04-04T05:04:25;-16149.97;;;-0.68;100.00
3590;BME280;1809;48.470;9.226;2023-04-04T05:06:51;-16150.66;;;-0.65;100.00
3590;BME280;1809;48.470;9.226;2023-04-04T05:09:20;-16154.19;;;-0.52;100.00
3590;BME280;1809;48.470;9.226;2023-04-04T05:11:46;-16152.66;;;-0.58;100.00
3590;BME280;1809;48.470;9.226;2023-04-04T05:14:21;-16153.78;;;-0.54;100.00
3590;BME280;1809;48.470;9.226;2023-04-04T05:16:47;-16158.16;;;-0.38;100.00
3590;BME280;1809;48.470;9.226;2023-04-04T05:19:13;-16155.75;;;-0.47;100.00
3590;BME280;1809;48.470;9.226;2023-04-04T05:21:38;-16158.44;;;-0.37;100.00
3590;BME280;1809;48.470;9.226;2023-04-04T05:24:04;-16156.88;;;-0.43;100.00
3590;BME280;1809;48.470;9.226;2023-04-04T05:26:29;-16157.44;;;-0.41;100.00
3590;BME280;1809;48.470;9.226;2023-04-04T05:28:55;-16155.47;;;-0.48;100.00
3590;BME280;1809;48.470;9.226;2023-04-04T05:31:20;-16156.88;;;-0.43;100.00
3590;BME280;1809;48.470;9.226;2023-04-04T05:33:45;-16159.13;;;-0.35;100.00
3590;BME280;1809;48.470;9.226;2023-04-04T05:36:11;-16161.09;;;-0.28;100.00
3590;BME280;1809;48.470;9.226;2023-04-04T05:38:37;-16162.53;;;-0.23;100.00
3590;BME280;1809;48.470;9.226;2023-04-04T05:41:03;-16164.50;;;-0.16;100.00
3590;BME280;1809;48.470;9.226;2023-04-04T05:43:28;-16173.09;;;0.15;100.00
3590;BME280;1809;48.470;9.226;2023-04-04T05:45:53;-16193.81;;;0.89;100.00
3590;BME280;1809;48.470;9.226;2023-04-04T05:48:19;-16218.59;;;1.78;100.00
3590;BME280;1809;48.470;9.226;2023-04-04T05:50:45;-16243.41;;;2.67;100.00
3590;BME280;1809;48.470;9.226;2023-04-04T05:53:11;-16274.38;;;3.78;100.00
3590;BME280;1809;48.470;9.226;2023-04-04T05:55:36;-16292.41;;;4.43;100.00
3590;BME280;1809;48.470;9.226;2023-04-04T05:58:01;-16299.56;;;4.68;100.00
3590;BME280;1809;48.470;9.226;2023-04-04T06:00:27;-16300.00;;;4.70;100.00
3590;BME280;1809;48.470;9.226;2023-04-04T06:02:55;-16298.88;;;4.66;100.00
3590;BME280;1809;48.470;9.226;2023-04-04T06:05:21;-16297.75;;;4.62;100.00
3590;BME280;1809;48.470;9.226;2023-04-04T06:07:46;-16303.38;;;4.82;100.00
3590;BME280;1809;48.470;9.226;2023-04-04T06:10:12;-16300.00;;;4.70;100.00
3590;BME280;1809;48.470;9.226;2023-04-04T06:12:37;-16312.38;;;5.14;100.00
3590;BME280;1809;48.470;9.226;2023-04-04T06:15:03;-16318.56;;;5.36;100.00
3590;BME280;1809;48.470;9.226;2023-04-04T06:17:28;-16308.16;;;4.99;100.00
3590;BME280;1809;48.470;9.226;2023-04-04T06:19:53;-16311.41;;;5.11;100.00
3590;BME280;1809;48.470;9.226;2023-04-04T06:22:19;-16336.31;;;6.00;100.00
3590;BME280;1809;48.470;9.226;2023-04-04T06:24:45;-16345.59;;;6.33;100.00
3590;BME280;1809;48.470;9.226;2023-04-04T06:27:11;-16352.63;;;6.59;100.00
3590;BME280;1809;48.470;9.226;2023-04-04T06:29:36;-16330.13;;;5.78;100.00
3590;BME280;1809;48.470;9.226;2023-04-04T06:32:01;-16351.78;;;6.56;100.00
3590;BME280;1809;48.470;9.226;2023-04-04T06:34:26;-16356.28;;;6.72;96.10
3590;BME280;1809;48.470;9.226;2023-04-04T06:36:52;-16354.19;;;6.64;91.93
3590;BME280;1809;48.470;9.226;2023-04-04T06:39:17;-16356.44;;;6.72;89.09
3590;BME280;1809;48.470;9.226;2023-04-04T06:41:43;-16357.13;;;6.75;90.08
3590;BME280;1809;48.470;9.226;2023-04-04T06:44:08;-16332.94;;;5.88;95.44
3590;BME280;1809;48.470;9.226;2023-04-04T06:46:36;-16332.94;;;5.88;98.95
3590;BME280;1809;48.470;9.226;2023-04-04T06:49:01;-16320.13;;;5.42;96.90
3590;BME280;1809;48.470;9.226;2023-04-04T06:51:27;-16328.00;;;5.70;99.44
3590;BME280;1809;48.470;9.226;2023-04-04T06:53:54;-16354.03;;;6.64;94.56
3590;BME280;1809;48.470;9.226;2023-04-04T06:56:21;-16361.34;;;6.90;86.11
3590;BME280;1809;48.470;9.226;2023-04-04T06:58:47;-16362.63;;;6.94;85.77
3590;BME280;1809;48.470;9.226;2023-04-04T07:01:12;-16344.47;;;6.29;87.08
3590;BME280;1809;48.470;9.226;2023-04-04T07:03:38;-16318.44;;;5.36;99.35
3590;BME280;1809;48.470;9.226;2023-04-04T07:06:03;-16305.91;;;4.91;100.00
3590;BME280;1809;48.470;9.226;2023-04-04T07:08:29;-16289.59;;;4.32;100.00
3590;BME280;1809;48.470;9.226;2023-04-04T07:10:55;-16262.56;;;3.36;100.00
3590;BME280;1809;48.470;9.226;2023-04-04T07:13:20;-16250.44;;;2.92;100.00
3590;BME280;1809;48.470;9.226;2023-04-04T07:15:46;-16247.75;;;2.83;100.00
3590;BME280;1809;48.470;9.226;2023-04-04T07:18:15;-16243.97;;;2.69;100.00
3590;BME280;1809;48.470;9.226;2023-04-04T07:20:40;-16241.28;;;2.59;100.00
3590;BME280;1809;48.470;9.226;2023-04-04T07:23:08;-16246.22;;;2.77;100.00
3590;BME280;1809;48.470;9.226;2023-04-04T07:25:33;-16247.19;;;2.81;100.00
3590;BME280;1809;48.470;9.226;2023-04-04T07:27:58;-16245.09;;;2.73;100.00
3590;BME280;1809;48.470;9.226;2023-04-04T07:30:24;-16245.66;;;2.75;100.00
3590;BME280;1809;48.470;9.226;2023-04-04T07:32:56;-16251.84;;;2.97;100.00
3590;BME280;1809;48.470;9.226;2023-04-04T07:35:22;-16248.59;;;2.86;100.00
3590;BME280;1809;48.470;9.226;2023-04-04T07:37:48;-16244.94;;;2.72;100.00
3590;BME280;1809;48.470;9.226;2023-04-04T07:40:13;-16246.34;;;2.78;100.00
3590;BME280;1809;48.470;9.226;2023-04-04T07:42:43;-16246.50;;;2.78;100.00
3590;BME280;1809;48.470;9.226;2023-04-04T07:45:10;-16247.06;;;2.80;100.00
3590;BME280;1809;48.470;9.226;2023-04-04T07:47:35;-16249.03;;;2.87;100.00
3590;BME280;1809;48.470;9.226;2023-04-04T07:50:02;-16249.88;;;2.90;100.00
3590;BME280;1809;48.470;9.226;2023-04-04T07:52:29;-16246.22;;;2.77;100.00
3590;BME280;1809;48.470;9.226;2023-04-04T07:54:55;-16245.94;;;2.76;100.00
3590;BME280;1809;48.470;9.226;2023-04-04T07:57:20;-16248.19;;;2.84;100.00
3590;BME280;1809;48.470;9.226;2023-04-04T07:59:46;-16248.75;;;2.86;100.00
3590;BME280;1809;48.470;9.226;2023-04-04T08:02:11;-16251.44;;;2.96;100.00
3590;BME280;1809;48.470;9.226;2023-04-04T08:04:37;-16250.44;;;2.92;100.00
3590;BME280;1809;48.470;9.226;2023-04-04T08:07:02;-16253.97;;;3.05;100.00
3590;BME280;1809;48.470;9.226;2023-04-04T08:09:28;-16255.78;;;3.11;100.00
3590;BME280;1809;48.470;9.226;2023-04-04T08:11:58;-16259.59;;;3.25;100.00
3590;BME280;1809;48.470;9.226;2023-04-04T08:14:25;-16264.25;;;3.42;100.00
3590;BME280;1809;48.470;9.226;2023-04-04T08:16:51;-16263.97;;;3.41;100.00
3590;BME280;1809;48.470;9.226;2023-04-04T08:19:19;-16266.63;;;3.50;100.00
3590;BME280;1809;48.470;9.226;2023-04-04T08:21:45;-16266.50;;;3.50;100.00
3590;BME280;1809;48.470;9.226;2023-04-04T08:24:11;-16266.34;;;3.49;100.00
3590;BME280;1809;48.470;9.226;2023-04-04T08:26:37;-16271.41;;;3.67;100.00
3590;BME280;1809;48.470;9.226;2023-04-04T08:29:03;-16265.66;;;3.47;100.00
3590;BME280;1809;48.470;9.226;2023-04-04T08:31:29;-16263.97;;;3.41;100.00
3590;BME280;1809;48.470;9.226;2023-04-04T08:33:55;-16272.13;;;3.70;100.00
3590;BME280;1809;48.470;9.226;2023-04-04T08:36:21;-16271.84;;;3.69;100.00
3590;BME280;1809;48.470;9.226;2023-04-04T08:38:47;-16277.19;;;3.88;100.00
3590;BME280;1809;48.470;9.226;2023-04-04T08:41:13;-16280.00;;;3.98;100.00
3590;BME280;1809;48.470;9.226;2023-04-04T08:43:42;-16286.47;;;4.21;100.00
3590;BME280;1809;48.470;9.226;2023-04-04T08:46:10;-16292.13;;;4.42;100.00
3590;BME280;1809;48.470;9.226;2023-04-04T08:48:38;-16303.38;;;4.82;100.00
3590;BME280;1809;48.470;9.226;2023-04-04T08:51:07;-16295.91;;;4.55;100.00
3590;BME280;1809;48.470;9.226;2023-04-04T08:53:35;-16290.16;;;4.34;100.00
3590;BME280;1809;48.470;9.226;2023-04-04T08:56:01;-16292.69;;;4.44;100.00
3590;BME280;1809;48.470;9.226;2023-04-04T08:58:27;-16292.69;;;4.44;100.00
3590;BME280;1809;48.470;9.226;2023-04-04T09:00:54;-16289.59;;;4.32;100.00
3590;BME280;1809;48.470;9.226;2023-04-04T09:03:24;-16292.81;;;4.44;100.00
3590;BME280;1809;48.470;9.226;2023-04-04T09:05:54;-16298.31;;;4.64;100.00
3590;BME280;1809;48.470;9.226;2023-04-04T09:08:21;-16302.81;;;4.80;100.00
3590;BME280;1809;48.470;9.226;2023-04-04T09:10:49;-16296.91;;;4.59;100.00
3590;BME280;1809;48.470;9.226;2023-04-04T09:13:16;-16294.38;;;4.50;100.00
3590;BME280;1809;48.470;9.226;2023-04-04T09:15:46;-16301.69;;;4.76;100.00
3590;BME280;1809;48.470;9.226;2023-04-04T09:18:12;-16300.84;;;4.73;100.00
3590;BME280;1809;48.470;9.226;2023-04-04T09:20:42;-16302.53;;;4.79;100.00
3590;BME280;1809;48.470;9.226;2023-04-04T09:23:20;-16305.91;;;4.91;100.00
3590;BME280;1809;48.470;9.226;2023-04-04T09:25:54;-16310.41;;;5.07;100.00
3590;BME280;1809;48.470;9.226;2023-04-04T09:28:21;-16319.41;;;5.39;100.00
3590;BME280;1809;48.470;9.226;2023-04-04T09:30:48;-16318.16;;;5.35;100.00
3590;BME280;1809;48.470;9.226;2023-04-04T09:33:15;-16327.31;;;5.68;100.00
3590;BME280;1809;48.470;9.226;2023-04-04T09:35:49;-16316.47;;;5.29;98.91
3590;BME280;1809;48.470;9.226;2023-04-04T09:38:20;-16314.91;;;5.23;100.00
3590;BME280;1809;48.470;9.226;2023-04-04T09:40:46;-16309.56;;;5.04;100.00
3590;BME280;1809;48.470;9.226;2023-04-04T09:43:12;-16308.88;;;5.02;100.00
3590;BME280;1809;48.470;9.226;2023-04-04T09:45:43;-16312.94;;;5.16;100.00
3590;BME280;1809;48.470;9.226;2023-04-04T09:48:12;-16322.94;;;5.52;99.97
3590;BME280;1809;48.470;9.226;2023-04-04T09:50:45;-16320.53;;;5.43;98.43
3590;BME280;1809;48.470;9.226;2023-04-04T09:53:17;-16312.66;;;5.15;97.34
3590;BME280;1809;48.470;9.226;2023-04-04T09:55:48;-16311.25;;;5.10;100.00
3590;BME280;1809;48.470;9.226;2023-04-04T09:58:16;-16321.69;;;5.48;100.00
3590;BME280;1809;48.470;9.226;2023-04-04T10:00:45;-16329.84;;;5.77;94.80
3590;BME280;1809;48.470;9.226;2023-04-04T10:03:15;-16331.09;;;5.81;96.43
3590;BME280;1809;48.470;9.226;2023-04-04T10:05:41;-16333.50;;;5.90;93.91
3590;BME280;1809;48.470;9.226;2023-04-04T10:08:28;-16330.13;;;5.78;93.49
3590;BME280;1809;48.470;9.226;2023-04-04T10:10:57;-16335.75;;;5.98;92.85
3590;BME280;1809;48.470;9.226;2023-04-04T10:13:26;-16331.81;;;5.84;88.94
3590;BME280;1809;48.470;9.226;2023-04-04T10:15:55;-16325.34;;;5.61;90.19
3590;BME280;1809;48.470;9.226;2023-04-04T10:18:23;-16319.84;;;5.41;90.64
3590;BME280;1809;48.470;9.226;2023-04-04T10:20:49;-16316.88;;;5.30;90.58
3590;BME280;1809;48.470;9.226;2023-04-04T10:23:15;-16319.56;;;5.40;95.66
3590;BME280;1809;48.470;9.226;2023-04-04T10:25:40;-16321.94;;;5.49;95.26
3590;BME280;1809;48.470;9.226;2023-04-04T10:28:07;-16317.72;;;5.33;93.56
3590;BME280;1809;48.470;9.226;2023-04-04T10:30:40;-16323.63;;;5.55;97.03
3590;BME280;1809;48.470;9.226;2023-04-04T10:33:08;-16328.44;;;5.72;91.56
3590;BME280;1809;48.470;9.226;2023-04-04T10:35:40;-16334.06;;;5.92;93.53
3590;BME280;1809;48.470;9.226;2023-04-04T10:38:08;-16342.22;;;6.21;84.65
3590;BME280;1809;48.470;9.226;2023-04-04T10:40:35;-16344.34;;;6.29;81.55
3590;BME280;1809;48.470;9.226;2023-04-04T10:43:03;-16338.00;;;6.06;85.27
3590;BME280;1809;48.470;9.226;2023-04-04T10:45:30;-16330.53;;;5.79;84.78
3590;BME280;1809;48.470;9.226;2023-04-04T10:47:56;-16330.69;;;5.80;85.27
3590;BME280;1809;48.470;9.226;2023-04-04T10:50:22;-16334.91;;;5.95;84.09
3590;BME280;1809;48.470;9.226;2023-04-04T10:52:48;-16331.66;;;5.83;84.31
3590;BME280;1809;48.470;9.226;2023-04-04T10:55:15;-16339.97;;;6.13;84.07
3590;BME280;1809;48.470;9.226;2023-04-04T10:57:51;-16335.19;;;5.96;90.19
3590;BME280;1809;48.470;9.226;2023-04-04T11:00:19;-16339.53;;;6.12;86.71
3590;BME280;1809;48.470;9.226;2023-04-04T11:05:30;-16337.56;;;6.05;86.12
3590;BME280;1809;48.470;9.226;2023-04-04T11:10:34;-16330.25;;;5.78;81.93
3590;BME280;1809;48.470;9.226;2023-04-04T11:13:23;-16334.06;;;5.92;86.85
3590;BME280;1809;48.470;9.226;2023-04-04T11:15:57;-16334.63;;;5.94;87.52
3590;BME280;1809;48.470;9.226;2023-04-04T11:21:09;-16344.19;;;6.28;88.93
3590;BME280;1809;48.470;9.226;2023-04-04T11:26:16;-16338.56;;;6.08;81.56
3590;BME280;1809;48.470;9.226;2023-04-04T11:28:44;-16336.31;;;6.00;81.19
3590;BME280;1809;48.470;9.226;2023-04-04T11:34:07;-16348.97;;;6.45;80.78
3590;BME280;1809;48.470;9.226;2023-04-04T11:42:04;-16358.25;;;6.79;78.12
3590;BME280;1809;48.470;9.226;2023-04-04T11:47:19;-16355.72;;;6.70;76.48
3590;BME280;1809;48.470;9.226;2023-04-04T11:49:47;-16354.19;;;6.64;75.76
3590;BME280;1809;48.470;9.226;2023-04-04T11:52:15;-16363.31;;;6.97;78.64
3590;BME280;1809;48.470;9.226;2023-04-04T11:54:42;-16351.94;;;6.56;73.78
3590;BME280;1809;48.470;9.226;2023-04-04T11:57:16;-16356.44;;;6.72;75.00
3590;BME280;1809;48.470;9.226;2023-04-04T11:59:44;-16356.72;;;6.73;74.91
3590;BME280;1809;48.470;9.226;2023-04-04T12:02:11;-16360.22;;;6.86;74.44
3590;BME280;1809;48.470;9.226;2023-04-04T12:04:38;-16366.56;;;7.09;69.58
3590;BME280;1809;48.470;9.226;2023-04-04T12:07:06;-16370.91;;;7.24;69.81
3590;BME280;1809;48.470;9.226;2023-04-04T12:09:32;-16366.69;;;7.09;71.85
3590;BME280;1809;48.470;9.226;2023-04-04T12:11:58;-16367.25;;;7.11;74.26
3590;BME280;1809;48.470;9.226;2023-04-04T12:14:24;-16366.97;;;7.10;70.97
3590;BME280;1809;48.470;9.226;2023-04-04T12:16:52;-16359.66;;;6.84;69.46
3590;BME280;1809;48.470;9.226;2023-04-04T12:19:18;-16347.84;;;6.41;70.34
3590;BME280;1809;48.470;9.226;2023-04-04T12:21:44;-16357.56;;;6.76;72.00
3590;BME280;1809;48.470;9.226;2023-04-04T12:24:10;-16369.94;;;7.21;69.20
3590;BME280;1809;48.470;9.226;2023-04-04T12:26:41;-16371.34;;;7.26;64.21
3590;BME280;1809;48.470;9.226;2023-04-04T12:29:09;-16370.06;;;7.21;66.46
3590;BME280;1809;48.470;9.226;2023-04-04T12:31:37;-16376.53;;;7.44;67.79
3590;BME280;1809;48.470;9.226;2023-04-04T12:34:03;-16375.13;;;7.39;66.55
3590;BME280;1809;48.470;9.226;2023-04-04T12:36:29;-16374.28;;;7.36;67.15
3590;BME280;1809;48.470;9.226;2023-04-04T12:39:06;-16374.84;;;7.38;67.54
3590;BME280;1809;48.470;9.226;2023-04-04T12:41:32;-16377.09;;;7.46;66.97
3590;BME280;1809;48.470;9.226;2023-04-04T12:44:03;-16381.31;;;7.62;64.83
3590;BME280;1809;48.470;9.226;2023-04-04T12:46:38;-16386.53;;;7.80;68.45
3590;BME280;1809;48.470;9.226;2023-04-04T12:49:05;-16385.25;;;7.76;66.34
3590;BME280;1809;48.470;9.226;2023-04-04T12:51:31;-16381.31;;;7.62;63.51
3590;BME280;1809;48.470;9.226;2023-04-04T12:54:00;-16383.84;;;7.71;65.74
3590;BME280;1809;48.470;9.226;2023-04-04T12:56:26;-16378.50;;;7.51;63.53
3590;BME280;1809;48.470;9.226;2023-04-04T12:58:52;-16376.53;;;7.44;66.08
3590;BME280;1809;48.470;9.226;2023-04-04T13:01:19;-16373.44;;;7.33;65.64
3590;BME280;1809;48.470;9.226;2023-04-04T13:03:45;-16379.63;;;7.55;69.85
3590;BME280;1809;48.470;9.226;2023-04-04T13:06:15;-16378.38;;;7.51;64.38
3590;BME280;1809;48.470;9.226;2023-04-04T13:08:51;-16381.03;;;7.61;65.22
3590;BME280;1809;48.470;9.226;2023-04-04T13:11:17;-16378.78;;;7.52;63.95
3590;BME280;1809;48.470;9.226;2023-04-04T13:13:43;-16380.75;;;7.60;59.59
3590;BME280;1809;48.470;9.226;2023-04-04T13:16:09;-16382.44;;;7.66;58.64
3590;BME280;1809;48.470;9.226;2023-04-04T13:18:37;-16387.09;;;7.82;58.54
3590;BME280;1809;48.470;9.226;2023-04-04T13:21:05;-16386.09;;;7.79;58.58
3590;BME280;1809;48.470;9.226;2023-04-04T13:23:33;-16394.53;;;8.09;59.87
3590;BME280;1809;48.470;9.226;2023-04-04T13:25:58;-16400.44;;;8.30;58.86
3590;BME280;1809;48.470;9.226;2023-04-04T13:28:24;-16398.63;;;8.24;58.02
3590;BME280;1809;48.470;9.226;2023-04-04T13:30:51;-16399.88;;;8.28;56.74
3590;BME280;1809;48.470;9.226;2023-04-04T13:33:17;-16405.38;;;8.48;56.66
3590;BME280;1809;48.470;9.226;2023-04-04T13:35:44;-16404.38;;;8.44;54.09